sensor_id;sensor_type;location;lat;lon;timestamp;temperature;humidity
29577;DHT22;16509;53.862;10.672;2022-12-07T00:00:55;2.30;99.90
29577;DHT22;16509;53.862;10.672;2022-12-07T00:03:21;2.40;99.90
29577;DHT22;16509;53.862;10.672;2022-12-07T00:05:46;2.40;99.90
29577;DHT22;16509;53.862;10.672;2022-12-07T00:08:12;2.40;99.90
29577;DHT22;16509;53.862;10.672;2022-12-07T00:10:38;2.50;99.90
29577;DHT22;16509;53.862;10.672;2022-12-07T00:13:03;2.60;99.90
29577;DHT22;16509;53.862;10.672;2022-12-07T00:15:29;2.60;99.90
29577;DHT22;16509;53.862;10.672;2022-12-07T00:17:54;2.60;99.90
29577;DHT22;16509;53.862;10.672;2022-12-07T00:20:20;2.70;99.90
29577;DHT22;16509;53.862;10.672;2022-12-07T00:22:45;2.70;99.90
29577;DHT22;16509;53.862;10.672;2022-12-07T00:25:11;2.70;99.90
29577;DHT22;16509;53.862;10.672;2022-12-07T00:27:36;2.70;99.90
29577;DHT22;16509;53.862;10.672;2022-12-07T00:30:02;2.80;99.90
29577;DHT22;16509;53.862;10.672;2022-12-07T00:32:28;2.70;99.90
29577;DHT22;16509;53.862;10.672;2022-12-07T00:34:54;2.80;99.90
29577;DHT22;16509;53.862;10.672;2022-12-07T00:37:19;2.80;99.90
29577;DHT22;16509;53.862;10.672;2022-12-07T00:39:46;2.80;99.90
29577;DHT22;16509;53.862;10.672;2022-12-07T00:42:11;2.80;99.90
29577;DHT22;16509;53.862;10.672;2022-12-07T00:44:37;3.70;99.90
29577;DHT22;16509;53.862;10.672;2022-12-07T00:47:03;4.00;99.90
29577;DHT22;16509;53.862;10.672;2022-12-07T00:49:28;2.80;99.90
29577;DHT22;16509;53.862;10.672;2022-12-07T00:51:54;2.80;99.90
29577;DHT22;16509;53.862;10.672;2022-12-07T00:54:19;2.80;99.90
29577;DHT22;16509;53.862;10.672;2022-12-07T00:56:45;2.80;99.90
29577;DHT22;16509;53.862;10.672;2022-12-07T00:59:12;2.80;99.90
29577;DHT22;16509;53.862;10.672;2022-12-07T01:01:40;2.80;99.90
29577;DHT22;16509;53.862;10.672;2022-12-07T01:04:06;2.70;99.90
29577;DHT22;16509;53.862;10.672;2022-12-07T01:06:32;2.80;99.90
29577;DHT22;16509;53.862;10.672;2022-12-07T01:08:58;2.90;99.90
29577;DHT22;16509;53.862;10.672;2022-12-07T01:11:26;2.90;99.90
29577;DHT22;16509;53.862;10.672;2022-12-07T01:13:54;2.90;99.90
29577;DHT22;16509;53.862;10.672;2022-12-07T01:16:22;3.40;99.90
29577;DHT22;16509;53.862;10.672;2022-12-07T01:18:50;2.90;99.90
29577;DHT22;16509;53.862;10.672;2022-12-07T01:21:19;2.90;99.90
29577;DHT22;16509;53.862;10.672;2022-12-07T01:23:46;3.60;99.90
29577;DHT22;16509;53.862;10.672;2022-12-07T01:26:14;2.90;99.90
29577;DHT22;16509;53.862;10.672;2022-12-07T01:28:40;2.80;99.90
29577;DHT22;16509;53.862;10.672;2022-12-07T01:31:12;2.80;99.90
29577;DHT22;16509;53.862;10.672;2022-12-07T01:33:41;2.80;99.90
29577;DHT22;16509;53.862;10.672;2022-12-07T01:36:16;2.80;99.90
29577;DHT22;16509;53.862;10.672;2022-12-07T01:38:42;2.90;99.90
29577;DHT22;16509;53.862;10.672;2022-12-07T01:41:08;2.90;99.90
29577;DHT22;16509;53.862;10.672;2022-12-07T01:43:34;3.00;99.90
29577;DHT22;16509;53.862;10.672;2022-12-07T01:46:03;3.00;99.90
29577;DHT22;16509;53.862;10.672;2022-12-07T01:51:02;3.00;99.90
29577;DHT22;16509;53.862;10.672;2022-12-07T01:53:30;3.20;99.90
29577;DHT22;16509;53.862;10.672;2022-12-07T01:55:56;3.20;99.90
29577;DHT22;16509;53.862;10.672;2022-12-07T01:58:24;3.20;99.90
29577;DHT22;16509;53.862;10.672;2022-12-07T02:00:50;3.30;99.90
29577;DHT22;16509;53.862;10.672;2022-12-07T02:03:27;3.30;99.90
29577;DHT22;16509;53.862;10.672;2022-12-07T02:05:54;3.30;99.90
29577;DHT22;16509;53.862;10.672;2022-12-07T02:08:21;3.30;99.90
29577;DHT22;16509;53.862;10.672;2022-12-07T02:10:46;3.30;99.90
29577;DHT22;16509;53.862;10.672;2022-12-07T02:13:22;3.30;99.90
29577;DHT22;16509;53.862;10.672;2022-12-07T02:32:23;3.40;99.90
29577;DHT22;16509;53.862;10.672;2022-12-07T02:34:58;3.40;99.90
29577;DHT22;16509;53.862;10.672;2022-12-07T02:40:21;3.50;99.90
29577;DHT22;16509;53.862;10.672;2022-12-07T02:42:51;3.50;99.90
29577;DHT22;16509;53.862;10.672;2022-12-07T02:45:21;3.50;99.90
29577;DHT22;16509;53.862;10.672;2022-12-07T02:47:51;3.50;99.90
29577;DHT22;16509;53.862;10.672;2022-12-07T02:50:20;3.50;99.90
29577;DHT22;16509;53.862;10.672;2022-12-07T02:52:46;3.50;99.90
29577;DHT22;16509;53.862;10.672;2022-12-07T02:55:12;3.50;99.90
29577;DHT22;16509;53.862;10.672;2022-12-07T03:00:44;3.50;99.90
29577;DHT22;16509;53.862;10.672;2022-12-07T03:03:14;3.50;99.90
29577;DHT22;16509;53.862;10.672;2022-12-07T03:06:00;3.50;99.90
29577;DHT22;16509;53.862;10.672;2022-12-07T03:11:44;3.40;99.90
29577;DHT22;16509;53.862;10.672;2022-12-07T03:14:23;3.40;99.90
29577;DHT22;16509;53.862;10.672;2022-12-07T03:16:55;3.40;99.90
29577;DHT22;16509;53.862;10.672;2022-12-07T03:19:24;3.40;99.90
29577;DHT22;16509;53.862;10.672;2022-12-07T03:22:03;3.50;99.90
29577;DHT22;16509;53.862;10.672;2022-12-07T03:24:35;3.50;99.90
29577;DHT22;16509;53.862;10.672;2022-12-07T03:27:10;3.50;99.90
29577;DHT22;16509;53.862;10.672;2022-12-07T03:29:43;3.50;99.90
29577;DHT22;16509;53.862;10.672;2022-12-07T03:32:16;3.50;99.90
29577;DHT22;16509;53.862;10.672;2022-12-07T03:34:56;3.40;99.90
29577;DHT22;16509;53.862;10.672;2022-12-07T03:37:36;3.40;99.90
29577;DHT22;16509;53.862;10.672;2022-12-07T03:40:10;3.40;99.90
29577;DHT22;16509;53.862;10.672;2022-12-07T03:42:37;3.40;99.90
29577;DHT22;16509;53.862;10.672;2022-12-07T03:45:04;3.40;99.90
29577;DHT22;16509;53.862;10.672;2022-12-07T03:47:59;3.40;99.90
29577;DHT22;16509;53.862;10.672;2022-12-07T03:50:48;3.40;99.90
29577;DHT22;16509;53.862;10.672;2022-12-07T03:53:24;3.40;99.90
29577;DHT22;16509;53.862;10.672;2022-12-07T03:55:52;3.60;99.90
29577;DHT22;16509;53.862;10.672;2022-12-07T03:58:21;3.30;99.90
29577;DHT22;16509;53.862;10.672;2022-12-07T04:00:49;3.40;99.90
29577;DHT22;16509;53.862;10.672;2022-12-07T04:03:15;3.30;99.90
29577;DHT22;16509;53.862;10.672;2022-12-07T04:05:41;3.60;99.90
29577;DHT22;16509;53.862;10.672;2022-12-07T04:08:07;3.30;99.90
29577;DHT22;16509;53.862;10.672;2022-12-07T04:10:33;4.10;99.90
29577;DHT22;16509;53.862;10.672;2022-12-07T04:12:59;3.30;99.90
29577;DHT22;16509;53.862;10.672;2022-12-07T04:15:24;3.20;99.90
29577;DHT22;16509;53.862;10.672;2022-12-07T04:17:50;3.30;99.90
29577;DHT22;16509;53.862;10.672;2022-12-07T04:20:16;3.20;99.90
29577;DHT22;16509;53.862;10.672;2022-12-07T04:22:42;3.10;99.90
29577;DHT22;16509;53.862;10.672;2022-12-07T04:25:07;3.20;99.90
29577;DHT22;16509;53.862;10.672;2022-12-07T04:27:33;3.10;99.90
29577;DHT22;16509;53.862;10.672;2022-12-07T04:29:59;3.10;99.90
29577;DHT22;16509;53.862;10.672;2022-12-07T04:32:25;4.00;99.90
29577;DHT22;16509;53.862;10.672;2022-12-07T04:34:50;3.10;99.90
29577;DHT22;16509;53.862;10.672;2022-12-07T04:37:16;3.20;99.90
29577;DHT22;16509;53.862;10.672;2022-12-07T04:39:43;3.00;99.90
29577;DHT22;16509;53.862;10.672;2022-12-07T04:42:10;3.30;99.90
29577;DHT22;16509;53.862;10.672;2022-12-07T04:44:36;3.60;99.90
29577;DHT22;16509;53.862;10.672;2022-12-07T04:47:02;2.80;99.90
29577;DHT22;16509;53.862;10.672;2022-12-07T04:49:28;2.70;99.90
29577;DHT22;16509;53.862;10.672;2022-12-07T04:51:54;2.70;99.90
29577;DHT22;16509;53.862;10.672;2022-12-07T04:54:19;2.70;99.90
29577;DHT22;16509;53.862;10.672;2022-12-07T04:56:45;2.60;99.90
29577;DHT22;16509;53.862;10.672;2022-12-07T04:59:12;2.60;99.90
29577;DHT22;16509;53.862;10.672;2022-12-07T05:01:38;2.50;99.90
29577;DHT22;16509;53.862;10.672;2022-12-07T05:04:05;2.50;99.90
29577;DHT22;16509;53.862;10.672;2022-12-07T05:06:31;2.50;99.90
29577;DHT22;16509;53.862;10.672;2022-12-07T05:08:56;3.50;99.90
29577;DHT22;16509;53.862;10.672;2022-12-07T05:11:22;2.50;99.90
29577;DHT22;16509;53.862;10.672;2022-12-07T05:14:15;2.40;99.90
29577;DHT22;16509;53.862;10.672;2022-12-07T05:16:42;2.40;99.90
29577;DHT22;16509;53.862;10.672;2022-12-07T05:19:08;2.40;99.90
29577;DHT22;16509;53.862;10.672;2022-12-07T05:21:34;2.40;99.90
29577;DHT22;16509;53.862;10.672;2022-12-07T05:24:00;2.30;99.90
29577;DHT22;16509;53.862;10.672;2022-12-07T05:26:27;2.30;99.90
29577;DHT22;16509;53.862;10.672;2022-12-07T05:28:54;2.30;99.90
29577;DHT22;16509;53.862;10.672;2022-12-07T05:31:21;2.30;99.90
29577;DHT22;16509;53.862;10.672;2022-12-07T05:33:47;2.30;99.90
29577;DHT22;16509;53.862;10.672;2022-12-07T05:36:13;3.20;99.90
29577;DHT22;16509;53.862;10.672;2022-12-07T05:38:39;2.20;99.90
29577;DHT22;16509;53.862;10.672;2022-12-07T05:41:06;3.10;99.90
29577;DHT22;16509;53.862;10.672;2022-12-07T05:43:53;2.10;99.90
29577;DHT22;16509;53.862;10.672;2022-12-07T05:46:18;2.10;99.90
29577;DHT22;16509;53.862;10.672;2022-12-07T05:48:44;2.00;99.90
29577;DHT22;16509;53.862;10.672;2022-12-07T05:51:09;2.00;99.90
29577;DHT22;16509;53.862;10.672;2022-12-07T05:53:35;1.90;99.90
29577;DHT22;16509;53.862;10.672;2022-12-07T05:56:01;1.90;99.90
29577;DHT22;16509;53.862;10.672;2022-12-07T05:58:26;1.80;99.90
29577;DHT22;16509;53.862;10.672;2022-12-07T06:01:10;1.80;99.90
29577;DHT22;16509;53.862;10.672;2022-12-07T06:03:36;1.80;99.90
29577;DHT22;16509;53.862;10.672;2022-12-07T06:06:01;1.80;99.90
29577;DHT22;16509;53.862;10.672;2022-12-07T06:08:27;1.80;99.90
29577;DHT22;16509;53.862;10.672;2022-12-07T06:10:52;1.80;99.90
29577;DHT22;16509;53.862;10.672;2022-12-07T06:13:38;1.90;99.90
29577;DHT22;16509;53.862;10.672;2022-12-07T06:16:04;1.90;99.90
29577;DHT22;16509;53.862;10.672;2022-12-07T06:18:29;1.90;99.90
29577;DHT22;16509;53.862;10.672;2022-12-07T06:20:55;2.60;99.90
29577;DHT22;16509;53.862;10.672;2022-12-07T06:23:20;1.80;99.90
29577;DHT22;16509;53.862;10.672;2022-12-07T06:25:46;1.90;99.90
29577;DHT22;16509;53.862;10.672;2022-12-07T06:28:11;1.80;99.90
29577;DHT22;16509;53.862;10.672;2022-12-07T06:30:37;1.80;99.90
29577;DHT22;16509;53.862;10.672;2022-12-07T06:33:03;1.80;99.90
29577;DHT22;16509;53.862;10.672;2022-12-07T06:35:28;3.10;99.90
29577;DHT22;16509;53.862;10.672;2022-12-07T06:37:54;1.70;99.90
29577;DHT22;16509;53.862;10.672;2022-12-07T06:40:19;1.70;99.90
29577;DHT22;16509;53.862;10.672;2022-12-07T06:42:45;1.70;99.90
29577;DHT22;16509;53.862;10.672;2022-12-07T06:45:10;1.70;99.90
29577;DHT22;16509;53.862;10.672;2022-12-07T06:47:36;1.60;99.90
29577;DHT22;16509;53.862;10.672;2022-12-07T06:50:02;1.60;99.90
29577;DHT22;16509;53.862;10.672;2022-12-07T06:52:28;1.60;99.90
29577;DHT22;16509;53.862;10.672;2022-12-07T06:54:53;1.60;99.90
29577;DHT22;16509;53.862;10.672;2022-12-07T06:57:19;1.60;99.90
29577;DHT22;16509;53.862;10.672;2022-12-07T06:59:45;1.60;99.90
29577;DHT22;16509;53.862;10.672;2022-12-07T07:02:11;1.60;99.90
29577;DHT22;16509;53.862;10.672;2022-12-07T07:04:36;1.70;99.90
29577;DHT22;16509;53.862;10.672;2022-12-07T07:07:02;1.60;99.90
29577;DHT22;16509;53.862;10.672;2022-12-07T07:09:27;1.70;99.90
29577;DHT22;16509;53.862;10.672;2022-12-07T07:11:53;1.70;99.90
29577;DHT22;16509;53.862;10.672;2022-12-07T07:14:19;1.70;99.90
29577;DHT22;16509;53.862;10.672;2022-12-07T07:16:44;1.70;99.90
29577;DHT22;16509;53.862;10.672;2022-12-07T07:19:10;1.70;99.90
29577;DHT22;16509;53.862;10.672;2022-12-07T07:21:36;1.70;99.90
29577;DHT22;16509;53.862;10.672;2022-12-07T07:24:02;1.70;99.90
29577;DHT22;16509;53.862;10.672;2022-12-07T07:26:27;1.70;99.90
29577;DHT22;16509;53.862;10.672;2022-12-07T07:28:53;1.60;99.90
29577;DHT22;16509;53.862;10.672;2022-12-07T07:31:19;1.50;99.90
29577;DHT22;16509;53.862;10.672;2022-12-07T07:33:46;1.50;99.90
29577;DHT22;16509;53.862;10.672;2022-12-07T07:36:12;1.40;99.90
29577;DHT22;16509;53.862;10.672;2022-12-07T07:38:37;1.40;99.90
29577;DHT22;16509;53.862;10.672;2022-12-07T07:41:03;1.40;99.90
29577;DHT22;16509;53.862;10.672;2022-12-07T07:43:29;1.40;99.90
29577;DHT22;16509;53.862;10.672;2022-12-07T07:45:54;1.80;99.90
29577;DHT22;16509;53.862;10.672;2022-12-07T07:48:20;1.30;99.90
29577;DHT22;16509;53.862;10.672;2022-12-07T07:50:48;1.30;99.90
29577;DHT22;16509;53.862;10.672;2022-12-07T07:53:13;1.30;99.90
29577;DHT22;16509;53.862;10.672;2022-12-07T07:55:39;1.20;99.90
29577;DHT22;16509;53.862;10.672;2022-12-07T07:58:05;1.20;99.90
29577;DHT22;16509;53.862;10.672;2022-12-07T08:00:30;1.10;99.90
29577;DHT22;16509;53.862;10.672;2022-12-07T08:02:56;1.20;99.90
29577;DHT22;16509;53.862;10.672;2022-12-07T08:05:21;1.10;99.90
29577;DHT22;16509;53.862;10.672;2022-12-07T08:07:47;1.10;99.90
29577;DHT22;16509;53.862;10.672;2022-12-07T08:10:13;1.20;99.90
29577;DHT22;16509;53.862;10.672;2022-12-07T08:12:40;1.20;99.90
29577;DHT22;16509;53.862;10.672;2022-12-07T08:15:28;1.30;99.90
29577;DHT22;16509;53.862;10.672;2022-12-07T08:17:53;1.30;99.90
29577;DHT22;16509;53.862;10.672;2022-12-07T08:20:20;1.40;99.90
29577;DHT22;16509;53.862;10.672;2022-12-07T08:22:45;1.40;99.90
29577;DHT22;16509;53.862;10.672;2022-12-07T08:25:11;1.50;99.90
29577;DHT22;16509;53.862;10.672;2022-12-07T08:27:36;1.50;99.90
29577;DHT22;16509;53.862;10.672;2022-12-07T08:30:02;1.60;99.90
29577;DHT22;16509;53.862;10.672;2022-12-07T08:32:28;1.70;99.90
29577;DHT22;16509;53.862;10.672;2022-12-07T08:34:53;1.70;99.90
29577;DHT22;16509;53.862;10.672;2022-12-07T08:37:19;1.80;99.90
29577;DHT22;16509;53.862;10.672;2022-12-07T08:39:44;2.30;99.90
29577;DHT22;16509;53.862;10.672;2022-12-07T08:42:10;1.90;99.90
29577;DHT22;16509;53.862;10.672;2022-12-07T08:44:35;2.60;99.90
29577;DHT22;16509;53.862;10.672;2022-12-07T08:47:04;1.90;99.90
29577;DHT22;16509;53.862;10.672;2022-12-07T08:49:41;2.00;99.90
29577;DHT22;16509;53.862;10.672;2022-12-07T08:52:08;2.00;99.90
29577;DHT22;16509;53.862;10.672;2022-12-07T08:54:36;2.00;99.90
29577;DHT22;16509;53.862;10.672;2022-12-07T08:57:03;2.70;99.90
29577;DHT22;16509;53.862;10.672;2022-12-07T08:59:29;2.20;99.90
29577;DHT22;16509;53.862;10.672;2022-12-07T09:01:55;2.30;99.90
29577;DHT22;16509;53.862;10.672;2022-12-07T09:04:21;2.30;99.90
29577;DHT22;16509;53.862;10.672;2022-12-07T09:06:47;2.40;99.90
29577;DHT22;16509;53.862;10.672;2022-12-07T09:09:14;2.60;99.90
29577;DHT22;16509;53.862;10.672;2022-12-07T09:11:39;2.90;99.90
29577;DHT22;16509;53.862;10.672;2022-12-07T09:14:05;2.60;99.90
29577;DHT22;16509;53.862;10.672;2022-12-07T09:16:31;2.70;99.90
29577;DHT22;16509;53.862;10.672;2022-12-07T09:18:56;2.70;99.90
29577;DHT22;16509;53.862;10.672;2022-12-07T09:21:22;2.80;99.90
29577;DHT22;16509;53.862;10.672;2022-12-07T09:23:48;3.70;99.90
29577;DHT22;16509;53.862;10.672;2022-12-07T09:26:13;2.80;99.90
29577;DHT22;16509;53.862;10.672;2022-12-07T09:28:40;2.90;99.90
29577;DHT22;16509;53.862;10.672;2022-12-07T09:31:06;2.90;99.90
29577;DHT22;16509;53.862;10.672;2022-12-07T09:33:32;4.60;99.90
29577;DHT22;16509;53.862;10.672;2022-12-07T09:35:58;2.90;99.90
29577;DHT22;16509;53.862;10.672;2022-12-07T09:38:23;3.00;99.90
29577;DHT22;16509;53.862;10.672;2022-12-07T09:40:51;3.00;99.90
29577;DHT22;16509;53.862;10.672;2022-12-07T09:43:20;3.00;99.90
29577;DHT22;16509;53.862;10.672;2022-12-07T09:45:48;3.00;99.90
29577;DHT22;16509;53.862;10.672;2022-12-07T09:48:22;3.00;99.90
29577;DHT22;16509;53.862;10.672;2022-12-07T09:50:49;3.10;99.90
29577;DHT22;16509;53.862;10.672;2022-12-07T09:53:21;3.10;99.90
29577;DHT22;16509;53.862;10.672;2022-12-07T09:55:48;3.20;99.90
29577;DHT22;16509;53.862;10.672;2022-12-07T09:58:25;3.20;99.90
29577;DHT22;16509;53.862;10.672;2022-12-07T10:01:01;3.20;99.90
29577;DHT22;16509;53.862;10.672;2022-12-07T10:03:30;3.50;99.90
29577;DHT22;16509;53.862;10.672;2022-12-07T10:05:56;3.20;99.90
29577;DHT22;16509;53.862;10.672;2022-12-07T10:08:22;3.20;99.90
29577;DHT22;16509;53.862;10.672;2022-12-07T10:11:00;3.20;99.90
29577;DHT22;16509;53.862;10.672;2022-12-07T10:13:40;3.20;99.90
29577;DHT22;16509;53.862;10.672;2022-12-07T10:18:50;3.20;99.90
29577;DHT22;16509;53.862;10.672;2022-12-07T10:21:24;3.30;99.90
29577;DHT22;16509;53.862;10.672;2022-12-07T10:24:04;3.30;99.90
29577;DHT22;16509;53.862;10.672;2022-12-07T10:26:35;3.30;99.90
29577;DHT22;16509;53.862;10.672;2022-12-07T10:29:24;3.50;99.90
29577;DHT22;16509;53.862;10.672;2022-12-07T10:34:32;3.40;99.90
29577;DHT22;16509;53.862;10.672;2022-12-07T10:37:19;3.40;99.90
29577;DHT22;16509;53.862;10.672;2022-12-07T10:39:46;3.50;99.90
29577;DHT22;16509;53.862;10.672;2022-12-07T10:42:24;3.50;99.90
29577;DHT22;16509;53.862;10.672;2022-12-07T10:45:16;3.50;99.90
29577;DHT22;16509;53.862;10.672;2022-12-07T10:51:09;3.60;99.90
29577;DHT22;16509;53.862;10.672;2022-12-07T10:54:03;3.60;99.90
29577;DHT22;16509;53.862;10.672;2022-12-07T10:56:39;3.60;99.90
29577;DHT22;16509;53.862;10.672;2022-12-07T11:23:46;3.70;99.90
29577;DHT22;16509;53.862;10.672;2022-12-07T11:34:36;3.70;99.90
29577;DHT22;16509;53.862;10.672;2022-12-07T11:37:10;3.70;99.90
29577;DHT22;16509;53.862;10.672;2022-12-07T11:39:51;3.70;99.90
29577;DHT22;16509;53.862;10.672;2022-12-07T11:42:30;3.70;99.90
29577;DHT22;16509;53.862;10.672;2022-12-07T11:47:57;3.60;99.90
29577;DHT22;16509;53.862;10.672;2022-12-07T11:55:56;3.70;99.90
29577;DHT22;16509;53.862;10.672;2022-12-07T11:58:44;3.70;99.90
29577;DHT22;16509;53.862;10.672;2022-12-07T12:06:45;3.70;99.90
29577;DHT22;16509;53.862;10.672;2022-12-07T12:09:17;3.70;99.90
29577;DHT22;16509;53.862;10.672;2022-12-07T12:11:56;3.70;99.90
29577;DHT22;16509;53.862;10.672;2022-12-07T12:17:44;3.70;99.90
29577;DHT22;16509;53.862;10.672;2022-12-07T12:20:32;3.80;99.90
29577;DHT22;16509;53.862;10.672;2022-12-07T12:23:16;3.70;99.90
29577;DHT22;16509;53.862;10.672;2022-12-07T12:25:44;3.70;99.90
29577;DHT22;16509;53.862;10.672;2022-12-07T12:30:46;3.70;99.90
29577;DHT22;16509;53.862;10.672;2022-12-07T12:33:30;4.70;99.90
29577;DHT22;16509;53.862;10.672;2022-12-07T12:46:55;3.50;99.90
29577;DHT22;16509;53.862;10.672;2022-12-07T12:54:25;3.60;99.90
29577;DHT22;16509;53.862;10.672;2022-12-07T12:59:30;3.50;99.90
29577;DHT22;16509;53.862;10.672;2022-12-07T13:02:20;3.50;99.90
29577;DHT22;16509;53.862;10.672;2022-12-07T13:10:32;3.50;99.90
29577;DHT22;16509;53.862;10.672;2022-12-07T13:21:01;3.20;99.90
29577;DHT22;16509;53.862;10.672;2022-12-07T13:23:39;3.20;99.90
29577;DHT22;16509;53.862;10.672;2022-12-07T13:31:36;3.20;99.90
29577;DHT22;16509;53.862;10.672;2022-12-07T13:34:04;3.20;99.90
29577;DHT22;16509;53.862;10.672;2022-12-07T13:36:33;3.20;99.90
29577;DHT22;16509;53.862;10.672;2022-12-07T13:41:42;3.10;99.90
29577;DHT22;16509;53.862;10.672;2022-12-07T13:44:13;3.10;99.90
29577;DHT22;16509;53.862;10.672;2022-12-07T13:47:13;3.00;99.90
29577;DHT22;16509;53.862;10.672;2022-12-07T13:49:52;3.00;99.90
29577;DHT22;16509;53.862;10.672;2022-12-07T13:52:19;3.00;99.90
29577;DHT22;16509;53.862;10.672;2022-12-07T13:55:00;3.00;99.90
29577;DHT22;16509;53.862;10.672;2022-12-07T13:57:29;2.90;99.90
29577;DHT22;16509;53.862;10.672;2022-12-07T13:59:56;4.10;99.90
29577;DHT22;16509;53.862;10.672;2022-12-07T14:02:31;3.10;99.90
29577;DHT22;16509;53.862;10.672;2022-12-07T14:05:16;2.90;99.90
29577;DHT22;16509;53.862;10.672;2022-12-07T14:10:34;2.90;99.90
29577;DHT22;16509;53.862;10.672;2022-12-07T14:13:02;2.80;99.90
29577;DHT22;16509;53.862;10.672;2022-12-07T14:15:33;2.80;99.90
29577;DHT22;16509;53.862;10.672;2022-12-07T14:18:02;2.80;99.90
29577;DHT22;16509;53.862;10.672;2022-12-07T14:20:39;2.80;99.90
29577;DHT22;16509;53.862;10.672;2022-12-07T14:23:24;2.60;99.90
29577;DHT22;16509;53.862;10.672;2022-12-07T14:25:52;2.60;99.90
29577;DHT22;16509;53.862;10.672;2022-12-07T14:28:32;2.60;99.90
29577;DHT22;16509;53.862;10.672;2022-12-07T14:30:59;2.60;99.90
29577;DHT22;16509;53.862;10.672;2022-12-07T14:33:26;2.90;99.90
29577;DHT22;16509;53.862;10.672;2022-12-07T14:35:52;2.50;99.90
29577;DHT22;16509;53.862;10.672;2022-12-07T14:38:25;3.10;99.90
29577;DHT22;16509;53.862;10.672;2022-12-07T14:40:53;2.30;99.90
29577;DHT22;16509;53.862;10.672;2022-12-07T14:43:19;3.70;99.90
29577;DHT22;16509;53.862;10.672;2022-12-07T14:45:45;2.20;99.90
29577;DHT22;16509;53.862;10.672;2022-12-07T14:48:12;2.20;99.90
29577;DHT22;16509;53.862;10.672;2022-12-07T14:50:49;2.20;99.90
29577;DHT22;16509;53.862;10.672;2022-12-07T14:53:17;2.10;99.90
29577;DHT22;16509;53.862;10.672;2022-12-07T14:55:43;2.10;99.90
29577;DHT22;16509;53.862;10.672;2022-12-07T14:58:16;2.00;99.90
29577;DHT22;16509;53.862;10.672;2022-12-07T15:00:43;1.90;99.90
29577;DHT22;16509;53.862;10.672;2022-12-07T15:03:09;2.00;99.90
29577;DHT22;16509;53.862;10.672;2022-12-07T15:05:35;1.90;99.90
29577;DHT22;16509;53.862;10.672;2022-12-07T15:08:01;1.80;99.90
29577;DHT22;16509;53.862;10.672;2022-12-07T15:10:30;1.60;99.90
29577;DHT22;16509;53.862;10.672;2022-12-07T15:12:58;1.80;99.90
29577;DHT22;16509;53.862;10.672;2022-12-07T15:15:43;1.70;99.90
29577;DHT22;16509;53.862;10.672;2022-12-07T15:18:09;1.70;99.90
29577;DHT22;16509;53.862;10.672;2022-12-07T15:20:34;1.70;99.90
29577;DHT22;16509;53.862;10.672;2022-12-07T15:23:00;1.70;99.90
29577;DHT22;16509;53.862;10.672;2022-12-07T15:25:25;2.90;99.90
29577;DHT22;16509;53.862;10.672;2022-12-07T15:27:51;1.60;99.90
29577;DHT22;16509;53.862;10.672;2022-12-07T15:30:16;1.60;99.90
29577;DHT22;16509;53.862;10.672;2022-12-07T15:32:42;1.60;99.90
29577;DHT22;16509;53.862;10.672;2022-12-07T15:35:08;1.50;99.90
29577;DHT22;16509;53.862;10.672;2022-12-07T15:37:33;1.60;99.90
29577;DHT22;16509;53.862;10.672;2022-12-07T15:39:59;1.50;99.90
29577;DHT22;16509;53.862;10.672;2022-12-07T15:42:25;1.50;99.90
29577;DHT22;16509;53.862;10.672;2022-12-07T15:44:50;1.50;99.90
29577;DHT22;16509;53.862;10.672;2022-12-07T15:47:33;1.40;99.90
29577;DHT22;16509;53.862;10.672;2022-12-07T15:49:59;1.40;99.90
29577;DHT22;16509;53.862;10.672;2022-12-07T15:52:25;1.30;99.90
29577;DHT22;16509;53.862;10.672;2022-12-07T15:54:50;1.30;99.90
29577;DHT22;16509;53.862;10.672;2022-12-07T15:57:16;1.30;99.90
29577;DHT22;16509;53.862;10.672;2022-12-07T15:59:42;1.30;99.90
29577;DHT22;16509;53.862;10.672;2022-12-07T16:02:09;1.20;99.90
29577;DHT22;16509;53.862;10.672;2022-12-07T16:04:36;1.20;99.90
29577;DHT22;16509;53.862;10.672;2022-12-07T16:07:02;1.20;99.90
29577;DHT22;16509;53.862;10.672;2022-12-07T16:09:28;1.20;99.90
29577;DHT22;16509;53.862;10.672;2022-12-07T16:11:53;1.20;99.90
29577;DHT22;16509;53.862;10.672;2022-12-07T16:14:20;1.10;99.90
29577;DHT22;16509;53.862;10.672;2022-12-07T16:16:46;1.10;99.90
29577;DHT22;16509;53.862;10.672;2022-12-07T16:19:12;1.10;99.90
29577;DHT22;16509;53.862;10.672;2022-12-07T16:21:37;1.10;99.90
29577;DHT22;16509;53.862;10.672;2022-12-07T16:24:03;1.10;99.90
29577;DHT22;16509;53.862;10.672;2022-12-07T16:26:30;1.10;99.90
29577;DHT22;16509;53.862;10.672;2022-12-07T16:28:56;1.00;99.90
29577;DHT22;16509;53.862;10.672;2022-12-07T16:31:24;1.00;99.90
29577;DHT22;16509;53.862;10.672;2022-12-07T16:33:52;1.00;99.90
29577;DHT22;16509;53.862;10.672;2022-12-07T16:36:19;1.00;99.90
29577;DHT22;16509;53.862;10.672;2022-12-07T16:38:46;1.00;99.90
29577;DHT22;16509;53.862;10.672;2022-12-07T16:41:12;1.00;99.90
29577;DHT22;16509;53.862;10.672;2022-12-07T16:43:38;1.00;99.90
29577;DHT22;16509;53.862;10.672;2022-12-07T16:46:06;1.00;99.90
29577;DHT22;16509;53.862;10.672;2022-12-07T16:48:36;1.00;99.90
29577;DHT22;16509;53.862;10.672;2022-12-07T16:51:06;0.90;99.90
29577;DHT22;16509;53.862;10.672;2022-12-07T16:53:34;0.90;99.90
29577;DHT22;16509;53.862;10.672;2022-12-07T16:56:00;0.90;99.90
29577;DHT22;16509;53.862;10.672;2022-12-07T16:58:26;0.80;99.90
29577;DHT22;16509;53.862;10.672;2022-12-07T17:00:51;0.90;99.90
29577;DHT22;16509;53.862;10.672;2022-12-07T17:03:17;0.90;99.90
29577;DHT22;16509;53.862;10.672;2022-12-07T17:05:44;0.90;99.90
29577;DHT22;16509;53.862;10.672;2022-12-07T17:08:11;0.90;99.90
29577;DHT22;16509;53.862;10.672;2022-12-07T17:10:39;0.80;99.90
29577;DHT22;16509;53.862;10.672;2022-12-07T17:13:05;0.80;99.90
29577;DHT22;16509;53.862;10.672;2022-12-07T17:16:03;0.80;99.90
29577;DHT22;16509;53.862;10.672;2022-12-07T17:18:31;0.80;99.90
29577;DHT22;16509;53.862;10.672;2022-12-07T17:21:03;0.80;99.90
29577;DHT22;16509;53.862;10.672;2022-12-07T17:23:31;0.80;99.90
29577;DHT22;16509;53.862;10.672;2022-12-07T17:26:07;0.80;99.90
29577;DHT22;16509;53.862;10.672;2022-12-07T17:28:34;0.80;99.90
29577;DHT22;16509;53.862;10.672;2022-12-07T17:31:00;0.80;99.90
29577;DHT22;16509;53.862;10.672;2022-12-07T17:33:26;0.80;99.90
29577;DHT22;16509;53.862;10.672;2022-12-07T17:35:51;0.80;99.90
29577;DHT22;16509;53.862;10.672;2022-12-07T17:38:17;0.80;99.90
29577;DHT22;16509;53.862;10.672;2022-12-07T17:40:43;0.80;99.90
29577;DHT22;16509;53.862;10.672;2022-12-07T17:43:08;0.80;99.90
29577;DHT22;16509;53.862;10.672;2022-12-07T17:45:36;0.90;99.90
29577;DHT22;16509;53.862;10.672;2022-12-07T17:48:03;0.90;99.90
29577;DHT22;16509;53.862;10.672;2022-12-07T17:50:29;0.90;99.90
29577;DHT22;16509;53.862;10.672;2022-12-07T17:53:27;2.00;99.90